Time;durP1;ratioP1;P1;durP2;ratioP2;P2;SDS_P1;SDS_P2;PMS_P1;PMS_P2;Temp;Humidity;BMP_temperature;BMP_pressure;BME280_temperature;BME280_humidity;BME280_pressure;Samples;Min_cycle;Max_cycle;Signal;HPM_P1;HPM_P2
2021/03/22 00:02:20;;;;;;;24.65;7.07;;;;;;;;;;5075651;28;19920;-70
2021/03/22 00:04:47;;;;;;;30.42;7.50;;;;;;;;;;5080536;28;20053;-71
2021/03/22 00:07:14;;;;;;;;;;;9.50;57.50;;;;;;5068657;28;20042;-72
2021/03/22 00:09:41;;;;;;;26.38;6.50;;;;;;;;;;5087198;28;19929;-71
2021/03/22 00:12:08;;;;;;;27.40;7.25;;;;;;;;;;5073060;28;20044;-71
2021/03/22 00:14:35;;;;;;;38.63;7.57;;;;;;;;;;5088546;28;20044;-69
2021/03/22 00:17:02;;;;;;;31.75;7.30;;;;;;;;;;5086005;28;20036;-71
2021/03/22 00:19:30;;;;;;;26.42;7.18;;;9.30;58.10;;;;;;5086748;28;20039;-70
2021/03/22 00:21:57;;;;;;;28.02;6.68;;;;;;;;;;5093259;28;20052;-69
2021/03/22 00:24:23;;;;;;;;;;;9.40;58.00;;;;;;5075583;28;20464;-70
2021/03/22 00:26:50;;;;;;;;;;;9.40;58.70;;;;;;5075324;28;19977;-71
2021/03/22 00:29:17;;;;;;;36.17;6.88;;;;;;;;;;5093070;28;19923;-71
2021/03/22 00:31:44;;;;;;;32.08;6.53;;;;;;;;;;5092828;28;20044;-73
2021/03/22 00:34:12;;;;;;;36.80;7.65;;;;;;;;;;5077140;28;20048;-70
2021/03/22 00:36:38;;;;;;;;;;;9.30;57.80;;;;;;5050544;28;20059;-70
2021/03/22 00:39:05;;;;;;;;;;;9.40;58.00;;;;;;5071127;28;19920;-70
2021/03/22 00:41:32;;;;;;;34.90;8.00;;;;;;;;;;5073059;28;19920;-70
2021/03/22 00:43:58;;;;;;;;;;;9.40;57.20;;;;;;5044037;28;20040;-72
2021/03/22 00:46:26;;;;;;;28.30;6.60;;;;;;;;;;5092970;28;20389;-72
2021/03/22 00:48:53;;;;;;;32.65;7.97;;;;;;;;;;5091813;28;20044;-70
2021/03/22 00:51:19;;;;;;;;;;;9.40;57.80;;;;;;5093076;28;20043;-72
2021/03/22 00:53:47;;;;;;;25.58;6.80;;;;;;;;;;5074168;28;19924;-71
2021/03/22 00:56:13;;;;;;;;;;;9.20;58.00;;;;;;5092740;28;20066;-71
2021/03/22 00:58:40;;;;;;;;;;;9.10;59.10;;;;;;5074535;28;20368;-72
2021/03/22 01:01:07;;;;;;;34.83;9.02;;;;;;;;;;5057812;28;19924;-71
2021/03/22 01:03:35;;;;;;;26.55;6.30;;;9.00;58.70;;;;;;5053418;28;20565;-71
2021/03/22 01:06:06;;;;;;;34.35;6.95;;;9.00;58.70;;;;;;5051144;28;20503;-71
2021/03/22 01:08:39;;;;;;;31.17;7.55;;;9.00;58.70;;;;;;5079419;28;20056;-71
2021/03/22 01:11:08;;;;;;;42.15;8.07;;;8.90;58.80;;;;;;5092475;28;20094;-70
2021/03/22 01:13:40;;;;;;;42.15;7.82;;;8.90;58.60;;;;;;5091993;28;20113;-71
2021/03/22 01:16:32;;;;;;;32.42;8.55;;;8.90;58.60;;;;;;5072779;28;20052;-70
2021/03/22 01:19:02;;;;;;;35.65;7.82;;;8.90;58.70;;;;;;5071800;28;20044;-70
2021/03/22 01:21:44;;;;;;;41.65;8.32;;;8.90;58.80;;;;;;5071798;28;20045;-71
2021/03/22 01:24:13;;;;;;;34.78;8.15;;;8.90;58.90;;;;;;5071518;28;20045;-72
2021/03/22 01:26:40;;;;;;;32.40;7.35;;;;;;;;;;5071965;28;20063;-69
2021/03/22 01:29:21;;;;;;;33.03;8.07;;;8.90;58.90;;;;;;5071972;28;20797;-70
2021/03/22 01:31:49;;;;;;;38.38;7.60;;;;;;;;;;5071006;28;20036;-70
2021/03/22 01:34:16;;;;;;;48.03;9.18;;;;;;;;;;5054327;28;20472;-71
2021/03/22 01:36:42;;;;;;;;;;;8.90;58.60;;;;;;5058110;28;20147;-71
2021/03/22 01:39:10;;;;;;;;;;;8.90;59.00;;;;;;5058090;28;19928;-71
2021/03/22 01:42:14;;;;;;;36.03;7.82;;;8.80;59.00;;;;;;5055374;28;19920;-71
2021/03/22 01:45:05;;;;;;;36.08;8.63;;;8.80;59.10;;;;;;5051543;28;20059;-71
2021/03/22 01:47:35;;;;;;;34.03;8.73;;;;;;;;;;5070023;28;20407;-71
2021/03/22 01:50:27;;;;;;;29.23;8.90;;;8.70;59.50;;;;;;5071528;28;20072;-71
2021/03/22 01:52:54;;;;;;;32.40;8.60;;;8.70;59.70;;;;;;5053277;28;20056;-70
2021/03/22 01:55:23;;;;;;;30.88;8.20;;;8.80;59.70;;;;;;5071298;28;20068;-71
2021/03/22 01:57:50;;;;;;;30.98;9.10;;;;;;;;;;5071327;28;20048;-71
2021/03/22 02:00:19;;;;;;;33.40;9.10;;;;;;;;;;5070521;28;20522;-69
2021/03/22 02:02:51;;;;;;;36.05;10.07;;;8.80;59.60;;;;;;5071484;28;20064;-72
2021/03/22 02:05:23;;;;;;;32.00;8.90;;;8.80;59.20;;;;;;5067754;28;20407;-71
2021/03/22 02:08:07;;;;;;;33.90;9.13;;;9.00;59.00;;;;;;5056541;28;20052;-72
2021/03/22 02:10:35;;;;;;;31.70;10.40;;;8.80;59.10;;;;;;5071261;28;20067;-70
2021/03/22 02:13:04;;;;;;;35.28;9.18;;;8.80;59.50;;;;;;5071279;28;20037;-73
2021/03/22 02:15:31;;;;;;;41.13;9.38;;;;;;;;;;5071246;28;20045;-71
2021/03/22 02:18:10;;;;;;;33.38;8.32;;;8.70;59.60;;;;;;5053083;28;20048;-70
2021/03/22 02:20:37;;;;;;;39.78;8.98;;;;;;;;;;5070956;28;20521;-69
2021/03/22 02:23:04;;;;;;;;;;;8.70;59.60;;;;;;5071070;28;20049;-70
2021/03/22 02:26:07;;;;;;;35.00;9.55;;;8.70;59.30;;;;;;5071471;28;19931;-72
2021/03/22 02:29:00;;;;;;;38.55;9.18;;;8.70;59.40;;;;;;5067782;28;20036;-71
2021/03/22 02:31:52;;;;;;;49.60;9.55;;;8.70;59.70;;;;;;5043812;28;20080;-72
2021/03/22 02:34:36;;;;;;;33.08;9.82;;;8.50;60.50;;;;;;5050138;28;20049;-70
2021/03/22 02:37:50;;;;;;;28.73;10.07;;;8.40;60.60;;;;;;5068704;28;20117;-72
2021/03/22 02:40:31;;;;;;;33.63;9.52;;;8.50;60.60;;;;;;4988993;28;20547;-70
2021/03/22 02:42:59;;;;;;;32.80;9.50;;;8.60;60.60;;;;;;4989650;28;20050;-72
2021/03/22 02:45:37;;;;;;;30.80;9.57;;;8.60;60.30;;;;;;4989188;28;20050;-72
2021/03/22 02:48:05;;;;;;;25.20;9.43;;;8.60;60.10;;;;;;4989546;28;20051;-70
2021/03/22 02:50:39;;;;;;;41.65;10.40;;;8.70;60.00;;;;;;4989056;28;20035;-71
2021/03/22 02:53:58;;;;;;;50.20;10.98;;;8.70;60.10;;;;;;4969960;28;20047;-72
2021/03/22 02:56:34;;;;;;;51.55;12.60;;;8.70;60.00;;;;;;4931444;29;20060;-72
2021/03/22 02:59:01;;;;;;;49.90;10.88;;;;;;;;;;4914674;29;20052;-70
2021/03/22 03:01:32;;;;;;;;;;;8.70;59.90;;;;;;4913080;29;20063;-71
2021/03/22 03:04:00;;;;;;;43.22;9.93;;;8.60;59.80;;;;;;4914173;29;19938;-72
2021/03/22 03:06:55;;;;;;;38.08;10.32;;;8.70;59.90;;;;;;4931229;29;20090;-71
2021/03/22 03:09:28;;;;;;;53.97;10.75;;;8.60;60.30;;;;;;4931442;29;20443;-71
2021/03/22 03:11:56;;;;;;;37.92;11.27;;;8.60;60.30;;;;;;4932537;29;20075;-72
2021/03/22 03:14:23;;;;;;;37.97;11.70;;;8.60;60.20;;;;;;4969722;28;20046;-72
2021/03/22 03:16:50;;;;;;;43.95;12.40;;;;;;;;;;5002879;28;20085;-71
2021/03/22 03:19:17;;;;;;;45.15;11.35;;;;;;;;;;5007425;28;20104;-71
2021/03/22 03:21:44;;;;;;;;;;;8.70;60.50;;;;;;5004938;28;20124;-71
2021/03/22 03:24:11;;;;;;;52.85;12.27;;;;;;;;;;5002613;28;19979;-71
2021/03/22 03:26:38;;;;;;;45.05;11.18;;;;;;;;;;5004684;28;20126;-71
2021/03/22 03:29:06;;;;;;;48.13;12.82;;;;;;;;;;4992545;28;20054;-71
2021/03/22 03:31:35;;;;;;;41.60;11.73;;;8.60;61.00;;;;;;5027930;28;20060;-71
2021/03/22 03:34:04;;;;;;;36.58;11.27;;;8.60;61.10;;;;;;5042991;28;20049;-70
2021/03/22 03:36:32;;;;;;;45.35;11.93;;;;;;;;;;5073837;28;20049;-71
2021/03/22 03:38:59;;;;;;;44.88;11.80;;;;;;;;;;5059614;28;20044;-73
2021/03/22 03:41:27;;;;;;;49.42;12.73;;;;;;;;;;5074121;28;20048;-70
2021/03/22 03:43:54;;;;;;;43.80;12.18;;;;;;;;;;5059753;28;20045;-70
2021/03/22 03:46:20;;;;;;;;;;;8.50;61.30;;;;;;5080345;28;20078;-70
2021/03/22 03:48:48;;;;;;;52.42;11.93;;;;;;;;;;5066432;28;19959;-71
2021/03/22 03:51:14;;;;;;;;;;;8.50;62.00;;;;;;5097547;28;20048;-73
2021/03/22 03:53:41;;;;;;;;;;;8.40;63.00;;;;;;5094998;28;20022;-71
2021/03/22 03:56:08;;;;;;;38.47;11.43;;;;;;;;;;5093923;28;20382;-71
2021/03/22 03:58:35;;;;;;;50.47;13.52;;;;;;;;;;5081102;28;20072;-71
2021/03/22 04:01:03;;;;;;;43.28;11.93;;;8.60;62.40;;;;;;5085850;28;20044;-71
2021/03/22 04:03:36;;;;;;;47.97;13.07;;;8.60;62.30;;;;;;5097210;28;20067;-71
2021/03/22 04:06:11;;;;;;;45.47;12.70;;;8.70;62.20;;;;;;5096837;28;20094;-70
2021/03/22 04:08:46;;;;;;;49.03;12.35;;;8.80;62.10;;;;;;5078497;28;20044;-70
2021/03/22 04:11:20;;;;;;;58.67;14.02;;;8.80;62.00;;;;;;5096030;28;20052;-71
2021/03/22 04:13:47;;;;;;;50.75;13.43;;;;;;;;;;5096505;28;20055;-71
2021/03/22 04:16:15;;;;;;;47.28;13.00;;;8.50;62.60;;;;;;5094741;28;20064;-70
2021/03/22 04:18:42;;;;;;;41.70;12.25;;;;;;;;;;5075130;28;20052;-71
2021/03/22 04:21:13;;;;;;;54.47;12.88;;;8.70;62.80;;;;;;5077490;28;20490;-70
2021/03/22 04:23:42;;;;;;;56.83;14.40;;;8.80;62.20;;;;;;5068679;28;20040;-71
2021/03/22 04:26:10;;;;;;;47.95;12.80;;;8.90;62.00;;;;;;5039416;28;20049;-71
2021/03/22 04:28:37;;;;;;;54.25;13.75;;;;;;;;;;5053206;28;20071;-70
2021/03/22 04:31:05;;;;;;;42.88;12.60;;;;;;;;;;5053240;28;20053;-70
2021/03/22 04:33:32;;;;;;;44.50;13.43;;;;;;;;;;5051590;28;20410;-71
2021/03/22 04:36:00;;;;;;;52.03;13.23;;;;;;;;;;5072674;28;20388;-71
2021/03/22 04:38:27;;;;;;;42.20;13.10;;;9.00;62.40;;;;;;5070569;28;20041;-71
2021/03/22 04:40:55;;;;;;;49.25;14.40;;;9.00;62.40;;;;;;5044738;28;20503;-71
2021/03/22 04:43:22;;;;;;;56.35;14.55;;;;;;;;;;5058197;28;20102;-71
2021/03/22 04:45:49;;;;;;;44.65;12.13;;;;;;;;;;5058304;28;20121;-71
2021/03/22 04:48:16;;;;;;;68.13;15.25;;;;;;;;;;5072669;28;20501;-71
2021/03/22 04:50:44;;;;;;;50.78;14.05;;;;;;;;;;5072555;28;20395;-72
2021/03/22 04:53:11;;;;;;;47.22;12.55;;;;;;;;;;5072214;28;20059;-69
2021/03/22 04:55:38;;;;;;;44.03;12.35;;;;;;;;;;5064400;28;20519;-73
2021/03/22 04:58:04;;;;;;;;;;;8.90;62.60;;;;;;5034661;28;20049;-70
2021/03/22 05:00:40;;;;;;;;;;;9.10;63.40;;;;;;5067667;28;19928;-71
2021/03/22 05:03:09;;;;;;;48.08;11.50;;;9.20;62.40;;;;;;5072182;28;19920;-70
2021/03/22 05:05:37;;;;;;;48.97;13.60;;;7.80;61.70;;;;;;5035370;28;20053;-71
2021/03/22 05:08:05;;;;;;;52.03;14.13;;;9.30;62.60;;;;;;5072121;28;20086;-72
2021/03/22 05:10:35;;;;;;;42.05;12.32;;;9.40;62.50;;;;;;5053876;28;20064;-70
2021/03/22 05:13:04;;;;;;;40.17;14.07;;;9.40;62.40;;;;;;5034109;28;20546;-69
2021/03/22 05:15:31;;;;;;;44.63;12.95;;;;;;;;;;5064133;28;20064;-71
2021/03/22 05:17:58;;;;;;;;;;;9.40;62.30;;;;;;5072186;28;20037;-72
2021/03/22 05:20:25;;;;;;;52.55;13.95;;;;;;;;;;5072099;28;20355;-71
2021/03/22 05:22:51;;;;;;;;;;;9.50;62.10;;;;;;5057291;28;20075;-70
2021/03/22 05:25:18;;;;;;;;;;;9.50;62.40;;;;;;5052024;28;19927;-70
2021/03/22 05:27:46;;;;;;;43.92;12.85;;;9.60;61.60;;;;;;5051958;28;19924;-70
2021/03/22 05:30:14;;;;;;;43.70;12.63;;;9.50;62.00;;;;;;5051138;28;20048;-71
2021/03/22 05:32:41;;;;;;;50.20;13.68;;;;;;;;;;5040863;28;20644;-72
2021/03/22 05:35:12;;;;;;;55.67;14.52;;;9.60;61.80;;;;;;5067307;28;20132;-70
2021/03/22 05:37:40;;;;;;;49.70;14.05;;;;;;;;;;5071593;28;20025;-70
2021/03/22 05:40:11;;;;;;;53.05;13.85;;;9.60;61.60;;;;;;5066481;28;20040;-70
2021/03/22 05:42:38;;;;;;;49.63;14.30;;;;;;;;;;5045922;28;20419;-70
2021/03/22 05:45:06;;;;;;;;;;;9.70;61.60;;;;;;5051200;28;20049;-73
2021/03/22 05:47:52;;;;;;;52.03;13.43;;;9.80;61.20;;;;;;5051609;28;20642;-70
2021/03/22 05:50:26;;;;;;;48.63;13.85;;;9.60;61.40;;;;;;5066283;28;20402;-72
2021/03/22 05:53:22;;;;;;;56.13;14.95;;;9.60;61.50;;;;;;5053697;28;20048;-71
2021/03/22 05:55:53;;;;;;;55.72;14.20;;;9.60;61.60;;;;;;5051215;28;20052;-72
2021/03/22 05:58:29;;;;;;;49.33;13.13;;;9.60;61.50;;;;;;5062711;28;20036;-71
2021/03/22 06:01:26;;;;;;;42.77;13.23;;;9.60;61.60;;;;;;5071302;28;20093;-70
2021/03/22 06:04:00;;;;;;;52.95;15.23;;;9.60;61.80;;;;;;5071188;28;20093;-71
2021/03/22 06:06:36;;;;;;;61.78;14.13;;;9.50;62.10;;;;;;5071559;28;20067;-72
2021/03/22 06:09:29;;;;;;;50.33;15.63;;;9.50;62.30;;;;;;5071017;28;20068;-72
2021/03/22 06:12:01;;;;;;;52.45;14.73;;;9.60;62.30;;;;;;5028206;28;20068;-71
2021/03/22 06:14:47;;;;;;;58.92;15.35;;;9.60;62.40;;;;;;5070347;28;20077;-71
2021/03/22 06:17:44;;;;;;;57.03;14.65;;;9.60;62.40;;;;;;5071133;28;20051;-71
2021/03/22 06:20:27;;;;;;;61.92;15.57;;;9.70;62.30;;;;;;5028341;28;20140;-71
2021/03/22 06:23:03;;;;;;;71.43;16.02;;;9.70;62.20;;;;;;5064092;28;20068;-72
2021/03/22 06:25:33;;;;;;;56.42;14.25;;;9.70;62.10;;;;;;5065299;28;20556;-71
2021/03/22 06:28:07;;;;;;;56.97;15.15;;;9.70;62.20;;;;;;5070052;28;20931;-70
2021/03/22 06:30:34;;;;;;;44.67;13.05;;;;;;;;;;5052450;28;20410;-72
2021/03/22 06:33:02;;;;;;;59.60;14.10;;;9.70;62.50;;;;;;5070247;28;20052;-72
2021/03/22 06:35:35;;;;;;;39.17;13.13;;;9.80;62.70;;;;;;5070656;28;20124;-72
2021/03/22 06:38:03;;;;;;;58.92;13.32;;;;;;;;;;4368031;28;10000618;-71
2021/03/22 06:40:33;;;;;;;51.47;15.07;;;9.90;62.40;;;;;;5058635;28;20444;-70
2021/03/22 06:43:20;;;;;;;53.08;14.52;;;9.90;62.40;;;;;;5067905;28;20063;-71
2021/03/22 06:46:08;;;;;;;46.75;13.50;;;9.80;62.40;;;;;;5069517;28;20049;-70
2021/03/22 06:48:36;;;;;;;52.63;13.23;;;10.00;62.30;;;;;;5068192;28;20089;-70
2021/03/22 06:51:04;;;;;;;50.20;13.68;;;;;;;;;;5063807;28;20045;-71
2021/03/22 06:53:49;;;;;;;62.83;15.38;;;10.10;62.20;;;;;;5072037;28;20044;-72
2021/03/22 06:56:20;;;;;;;50.38;14.57;;;10.40;62.10;;;;;;5059676;28;20110;-72
2021/03/22 06:58:50;;;;;;;54.08;13.82;;;10.40;61.80;;;;;;5071821;28;20505;-71
2021/03/22 07:01:30;;;;;;;44.50;13.80;;;10.40;61.60;;;;;;5071922;28;20037;-71
2021/03/22 07:04:20;;;;;;;42.45;12.05;;;10.50;61.80;;;;;;5071424;28;20529;-71
2021/03/22 07:07:14;;;;;;;50.95;12.63;;;10.50;61.70;;;;;;5071632;28;20052;-72
2021/03/22 07:09:57;;;;;;;45.25;13.38;;;10.50;61.60;;;;;;5058692;28;20102;-70
2021/03/22 07:12:38;;;;;;;45.42;13.55;;;10.60;61.80;;;;;;5070889;28;20055;-71
2021/03/22 07:15:30;;;;;;;41.80;12.32;;;10.70;61.80;;;;;;5070960;28;20110;-73
2021/03/22 07:18:15;;;;;;;49.58;12.98;;;10.70;61.50;;;;;;5062288;28;20044;-71
2021/03/22 07:21:00;;;;;;;44.72;14.85;;;10.80;61.40;;;;;;5067412;28;20442;-71
2021/03/22 07:23:51;;;;;;;46.50;12.10;;;10.80;61.30;;;;;;5073639;28;20049;-69
2021/03/22 07:26:24;;;;;;;67.85;23.95;;;10.80;61.20;;;;;;5056069;28;20060;-71
2021/03/22 07:28:51;;;;;;;46.38;12.45;;;;;;;;;;5059806;28;20040;-71
2021/03/22 07:31:36;;;;;;;;;;;10.80;61.60;;;;;;5055807;28;20110;-72
2021/03/22 07:34:37;;;;;;;36.55;10.43;;;10.90;61.60;;;;;;5061259;28;20286;-71
2021/03/22 07:37:30;;;;;;;36.65;9.63;;;10.90;61.20;;;;;;5072512;28;20043;-72
2021/03/22 07:40:01;;;;;;;42.85;11.85;;;11.00;61.80;;;;;;5049702;28;20125;-72
2021/03/22 07:42:35;;;;;;;34.15;10.13;;;11.00;60.90;;;;;;5059929;28;20037;-72
2021/03/22 07:45:32;;;;;;;25.83;8.50;;;11.10;60.70;;;;;;5072596;28;20052;-72
2021/03/22 07:48:23;;;;;;;32.67;9.10;;;11.10;60.40;;;;;;5060060;28;20526;-73
2021/03/22 07:51:20;;;;;;;33.42;8.30;;;11.00;59.90;;;;;;5042909;28;20055;-74
2021/03/22 07:53:51;;;;;;;23.92;7.78;;;10.80;59.60;;;;;;5072521;28;20506;-71
2021/03/22 07:56:24;;;;;;;30.05;8.35;;;10.90;60.00;;;;;;5050398;28;20680;-71
2021/03/22 07:59:21;;;;;;;26.73;7.47;;;10.60;59.80;;;;;;5051500;28;21045;-72
2021/03/22 08:02:08;;;;;;;34.42;7.95;;;10.30;61.20;;;;;;5052871;28;20470;-71
2021/03/22 08:04:55;;;;;;;40.13;7.22;;;10.10;61.40;;;;;;5039108;28;20037;-72
2021/03/22 08:07:41;;;;;;;20.80;6.70;;;10.20;62.00;;;;;;5052194;28;20051;-71
2021/03/22 08:10:33;;;;;;;30.98;7.55;;;10.40;61.40;;;;;;5050636;28;20124;-72
2021/03/22 08:13:34;;;;;;;27.00;6.68;;;10.60;61.20;;;;;;5052607;28;20037;-73
2021/03/22 08:16:49;;;;;;;22.13;7.30;;;10.90;60.50;;;;;;5045545;28;20063;-72
2021/03/22 08:19:27;;;;;;;24.45;6.70;;;11.10;57.80;;;;;;5033857;28;20045;-71
2021/03/22 08:22:04;;;;;;;20.25;6.78;;;11.30;58.20;;;;;;5052654;28;20487;-73
2021/03/22 08:24:43;;;;;;;21.00;6.85;;;11.40;57.80;;;;;;5050505;28;20044;-72
2021/03/22 08:27:20;;;;;;;24.33;6.80;;;11.60;57.20;;;;;;5054529;28;20047;-73
2021/03/22 08:29:59;;;;;;;19.08;5.90;;;11.70;56.70;;;;;;5050585;28;20041;-70
2021/03/22 08:32:49;;;;;;;22.95;6.10;;;11.80;56.20;;;;;;5050701;28;20115;-73
2021/03/22 08:35:29;;;;;;;28.83;6.72;;;11.90;55.90;;;;;;5050896;28;20063;-73
2021/03/22 08:38:34;;;;;;;21.13;6.25;;;12.00;56.40;;;;;;5050245;28;20102;-70
2021/03/22 08:41:03;;;;;;;27.30;6.43;;;12.00;54.50;;;;;;5049819;28;20491;-73
2021/03/22 08:43:54;;;;;;;20.00;6.10;;;12.00;54.50;;;;;;5049393;28;20040;-72
2021/03/22 08:46:38;;;;;;;26.25;6.28;;;12.00;53.70;;;;;;5042708;28;20053;-72
2021/03/22 08:49:39;;;;;;;26.13;6.73;;;11.80;54.50;;;;;;5049909;28;20033;-71
2021/03/22 08:52:06;;;;;;;21.50;5.50;;;11.90;53.50;;;;;;5052244;28;20057;-72
2021/03/22 08:54:34;;;;;;;17.48;6.50;;;11.70;53.40;;;;;;5050448;28;20071;-72
2021/03/22 08:57:22;;;;;;;16.45;6.03;;;11.70;54.00;;;;;;5071134;28;20092;-71
2021/03/22 09:00:07;;;;;;;18.77;5.00;;;11.70;53.60;;;;;;5071581;28;20040;-73
2021/03/22 09:02:35;;;;;;;15.07;5.97;;;;;;;;;;5053756;28;20101;-72
2021/03/22 09:05:22;;;;;;;20.95;5.32;;;11.50;53.30;;;;;;5071720;28;20052;-71
2021/03/22 09:07:49;;;;;;;18.00;5.90;;;;;;;;;;5037247;28;20450;-72
2021/03/22 09:10:36;;;;;;;20.42;5.32;;;11.50;53.40;;;;;;5065090;28;20045;-73
2021/03/22 09:13:21;;;;;;;18.20;6.10;;;11.50;53.30;;;;;;5072801;28;20036;-74
2021/03/22 09:16:10;;;;;;;21.63;6.10;;;11.60;53.10;;;;;;5073174;28;20048;-71
2021/03/22 09:19:02;;;;;;;21.02;6.72;;;11.80;53.10;;;;;;5071023;28;20045;-71
2021/03/22 09:21:30;;;;;;;26.98;5.75;;;;;;;;;;5072986;28;20044;-71
2021/03/22 09:23:59;;;;;;;20.30;5.75;;;12.20;52.30;;;;;;5074149;28;20052;-71
2021/03/22 09:26:51;;;;;;;12.82;5.35;;;12.30;50.80;;;;;;5070921;28;20046;-73
2021/03/22 09:29:47;;;;;;;11.85;4.57;;;12.40;48.40;;;;;;5067790;28;20048;-72
2021/03/22 09:32:29;;;;;;;14.40;4.60;;;12.30;47.30;;;;;;5035850;28;20064;-70
2021/03/22 09:35:06;;;;;;;14.35;4.40;;;12.10;47.30;;;;;;5054121;28;20475;-73
2021/03/22 09:37:45;;;;;;;;;;;12.00;47.80;;;;;;5072135;28;20048;-70
2021/03/22 09:40:21;;;;;;;16.02;5.18;;;11.30;50.20;;;;;;5037430;28;20013;-72
2021/03/22 09:43:13;;;;;;;13.60;4.78;;;11.20;51.30;;;;;;5045582;28;20047;-71
2021/03/22 09:45:52;;;;;;;12.95;4.40;;;11.50;50.00;;;;;;5052049;28;20068;-72
2021/03/22 09:48:34;;;;;;;12.57;4.50;;;11.50;49.30;;;;;;5070549;28;20040;-70
2021/03/22 09:51:04;;;;;;;13.40;4.38;;;;;;;;;;5039826;28;20407;-71
2021/03/22 09:53:56;;;;;;;10.68;3.85;;;11.60;47.40;;;;;;5053455;28;20441;-69
2021/03/22 09:56:35;;;;;;;7.65;3.28;;;11.70;46.60;;;;;;5066664;28;20063;-73
2021/03/22 09:59:25;;;;;;;5.47;3.50;;;11.70;48.40;;;;;;5067577;28;20135;-71
2021/03/22 10:01:55;;;;;;;4.60;3.00;;;11.60;46.70;;;;;;5063173;28;20041;-70
2021/03/22 10:04:36;;;;;;;8.18;2.97;;;11.70;46.30;;;;;;5065193;28;20052;-71
2021/03/22 10:07:27;;;;;;;11.05;3.30;;;11.60;46.40;;;;;;5068453;28;20037;-69
2021/03/22 10:10:17;;;;;;;8.27;3.10;;;11.50;47.40;;;;;;5067316;28;20071;-70
2021/03/22 10:12:52;;;;;;;3.10;2.80;;;11.50;47.20;;;;;;5070619;28;20075;-70
2021/03/22 10:15:27;;;;;;;8.25;3.00;;;11.80;46.60;;;;;;5052577;28;20486;-71
2021/03/22 10:17:56;;;;;;;4.70;2.90;;;;;;;;;;5069537;28;20110;-70
2021/03/22 10:20:27;;;;;;;6.70;3.47;;;;;;;;;;5070173;28;20036;-72
2021/03/22 10:23:32;;;;;;;7.95;3.40;;;11.30;47.30;;;;;;5074532;28;20032;-72
2021/03/22 10:26:14;;;;;;;6.55;2.88;;;11.50;48.20;;;;;;5074719;28;20052;-72
2021/03/22 10:28:41;;;;;;;6.90;3.10;;;;;;;;;;5073874;28;20076;-71
2021/03/22 10:31:22;;;;;;;7.55;3.83;;;12.10;48.20;;;;;;5073982;28;20041;-69
2021/03/22 10:34:01;;;;;;;17.17;5.07;;;12.40;49.70;;;;;;5073201;28;20412;-72
2021/03/22 10:36:36;;;;;;;16.55;5.28;;;12.60;49.70;;;;;;5073478;28;20045;-72
2021/03/22 10:39:36;;;;;;;14.73;5.07;;;12.50;49.80;;;;;;5038787;28;20069;-71
2021/03/22 10:42:19;;;;;;;18.38;5.30;;;12.80;49.30;;;;;;5058940;28;20036;-74
2021/03/22 10:44:46;;;;;;;13.75;5.40;;;;;;;;;;5073782;28;20056;-71
2021/03/22 10:47:17;;;;;;;17.27;5.10;;;12.80;49.70;;;;;;5073214;28;20072;-73
2021/03/22 10:49:44;;;;;;;13.30;5.45;;;;;;;;;;5073032;28;20161;-73
2021/03/22 10:52:21;;;;;;;15.68;5.72;;;12.30;50.80;;;;;;5073113;28;20051;-72
2021/03/22 10:54:49;;;;;;;11.27;5.00;;;12.30;51.50;;;;;;5072672;28;20115;-70
2021/03/22 10:57:36;;;;;;;15.05;5.68;;;12.40;51.40;;;;;;5069107;28;20040;-73
2021/03/22 11:00:29;;;;;;;15.73;5.63;;;12.60;51.50;;;;;;5056746;28;20036;-72
2021/03/22 11:02:57;;;;;;;20.67;5.60;;;;;;;;;;5060759;28;20075;-73
2021/03/22 11:05:37;;;;;;;20.40;5.55;;;12.40;51.80;;;;;;5073749;28;20044;-72
2021/03/22 11:08:08;;;;;;;15.13;5.28;;;12.20;52.10;;;;;;5055122;28;20048;-72
2021/03/22 11:10:36;;;;;;;11.02;5.40;;;12.20;51.70;;;;;;5073559;28;20040;-70
2021/03/22 11:13:04;;;;;;;11.45;4.70;;;12.30;51.70;;;;;;5073928;28;20067;-71
2021/03/22 11:15:33;;;;;;;13.48;5.18;;;12.40;51.80;;;;;;5073292;28;20032;-69
2021/03/22 11:18:04;;;;;;;8.13;4.28;;;12.50;51.70;;;;;;5072206;28;20036;-72
2021/03/22 11:20:31;;;;;;;8.70;4.38;;;;;;;;;;5055577;28;20088;-70
2021/03/22 11:23:13;;;;;;;10.32;4.20;;;12.60;50.20;;;;;;5073506;28;20051;-68
2021/03/22 11:25:40;;;;;;;15.82;4.90;;;;;;;;;;5073297;28;20036;-72
2021/03/22 11:28:07;;;;;;;9.68;4.00;;;;;;;;;;5072579;28;20052;-72
2021/03/22 11:30:34;;;;;;;9.90;4.07;;;;;;;;;;5073767;28;20036;-72
2021/03/22 11:33:13;;;;;;;10.70;4.50;;;12.90;49.20;;;;;;5037884;28;20063;-70
2021/03/22 11:35:43;;;;;;;11.82;4.10;;;13.10;48.30;;;;;;5073110;28;20036;-69
2021/03/22 11:38:32;;;;;;;10.35;3.88;;;13.00;48.20;;;;;;5059300;28;20040;-72
2021/03/22 11:40:59;;;;;;;13.95;4.22;;;;;;;;;;5069965;28;20055;-72
2021/03/22 11:43:26;;;;;;;9.45;3.70;;;;;;;;;;5054664;28;20132;-72
2021/03/22 11:45:54;;;;;;;9.10;3.80;;;;;;;;;;5055215;28;20048;-71
2021/03/22 11:48:21;;;;;;;7.25;3.80;;;;;;;;;;5054333;28;20041;-72
2021/03/22 11:50:54;;;;;;;8.63;4.10;;;12.80;47.80;;;;;;5072877;28;20116;-72
2021/03/22 11:53:22;;;;;;;11.85;3.67;;;12.70;47.40;;;;;;5072717;28;20044;-71
2021/03/22 11:56:15;;;;;;;5.13;3.05;;;12.70;46.90;;;;;;5072255;28;20418;-71
2021/03/22 11:58:43;;;;;;;5.10;2.88;;;12.40;47.20;;;;;;5071531;28;20123;-69
2021/03/22 12:01:26;;;;;;;12.25;3.88;;;12.30;48.00;;;;;;5054721;28;20052;-72
2021/03/22 12:04:04;;;;;;;8.60;3.25;;;12.60;48.50;;;;;;5054911;28;20064;-71
2021/03/22 12:06:33;;;;;;;8.63;3.47;;;12.70;48.30;;;;;;5058520;28;20048;-71
2021/03/22 12:09:11;;;;;;;7.72;3.25;;;12.90;46.30;;;;;;5072574;28;20044;-70
2021/03/22 12:11:38;;;;;;;8.63;3.30;;;;;;;;;;5072482;28;20037;-71
2021/03/22 12:14:05;;;;;;;7.25;3.25;;;;;;;;;;5072470;28;20379;-69
2021/03/22 12:16:34;;;;;;;10.43;3.30;;;13.00;45.70;;;;;;5071114;28;20102;-72
2021/03/22 12:19:09;;;;;;;4.22;2.95;;;13.20;46.00;;;;;;5071160;28;20040;-71
2021/03/22 12:21:36;;;;;;;7.43;3.08;;;13.30;44.90;;;;;;5058330;28;20032;-72
2021/03/22 12:24:04;;;;;;;5.22;2.92;;;13.30;45.40;;;;;;5071664;28;20068;-70
2021/03/22 12:26:33;;;;;;;15.38;3.45;;;;;;;;;;5052871;28;20083;-71
2021/03/22 12:29:00;;;;;;;3.78;2.83;;;;;;;;;;5053908;28;20491;-71
2021/03/22 12:31:29;;;;;;;4.22;2.90;;;13.10;45.50;;;;;;5071402;28;20040;-72
2021/03/22 12:34:02;;;;;;;3.83;2.63;;;13.10;45.00;;;;;;5069250;28;20040;-70
2021/03/22 12:36:30;;;;;;;6.15;2.95;;;;;;;;;;5054860;28;20056;-69
2021/03/22 12:38:58;;;;;;;5.28;2.90;;;;;;;;;;5047574;28;20085;-71
2021/03/22 12:41:31;;;;;;;4.93;2.65;;;13.60;43.50;;;;;;5060302;28;20397;-72
2021/03/22 12:44:03;;;;;;;4.63;3.00;;;13.60;43.20;;;;;;5070791;28;20486;-70
2021/03/22 12:46:30;;;;;;;5.38;2.95;;;;;;;;;;5052381;28;20059;-72
2021/03/22 12:48:58;;;;;;;3.25;2.80;;;;;;;;;;5070813;28;20044;-72
2021/03/22 12:51:25;;;;;;;3.40;2.67;;;;;;;;;;5071666;28;20028;-70
2021/03/22 12:53:55;;;;;;;4.18;2.78;;;;;;;;;;5071358;28;20086;-71
2021/03/22 12:56:30;;;;;;;3.80;2.80;;;13.20;43.60;;;;;;5053111;28;20078;-72
2021/03/22 12:59:37;;;;;;;4.75;2.70;;;13.10;43.30;;;;;;5041631;28;20051;-72
2021/03/22 13:02:16;;;;;;;3.30;2.75;;;13.10;43.30;;;;;;5071334;28;20036;-69
2021/03/22 13:04:44;;;;;;;6.22;2.85;;;;;;;;;;5063215;28;20040;-69
2021/03/22 13:07:13;;;;;;;6.15;2.90;;;13.00;44.40;;;;;;5070861;28;20090;-71
2021/03/22 13:09:40;;;;;;;7.55;3.35;;;12.90;44.50;;;;;;5053593;28;20048;-71
2021/03/22 13:12:18;;;;;;;5.18;3.00;;;13.00;44.30;;;;;;5071481;28;20043;-71
2021/03/22 13:14:45;;;;;;;6.93;3.25;;;;;;;;;;5060932;28;20048;-69
2021/03/22 13:17:14;;;;;;;4.20;2.88;;;12.80;46.10;;;;;;5070892;28;20102;-70
2021/03/22 13:19:41;;;;;;;7.50;3.17;;;;;;;;;;5070131;28;20075;-70
2021/03/22 13:22:10;;;;;;;7.88;3.45;;;13.10;45.80;;;;;;5070565;28;20048;-70
2021/03/22 13:24:39;;;;;;;6.63;3.08;;;;;;;;;;5070860;28;20090;-71
2021/03/22 13:27:09;;;;;;;7.13;3.10;;;13.10;45.00;;;;;;5070186;28;20059;-72
2021/03/22 13:29:36;;;;;;;4.78;3.15;;;;;;;;;;5070492;28;20410;-72
2021/03/22 13:32:03;;;;;;;3.88;3.00;;;;;;;;;;5070757;28;20045;-70
2021/03/22 13:34:31;;;;;;;5.47;2.55;;;;;;;;;;5070995;28;20029;-72
2021/03/22 13:36:59;;;;;;;2.92;2.63;;;;;;;;;;5070266;28;20040;-70
2021/03/22 13:39:27;;;;;;;9.77;3.20;;;13.40;44.00;;;;;;5070477;28;20041;-72
2021/03/22 13:41:55;;;;;;;4.95;2.75;;;13.60;43.50;;;;;;5052743;28;20094;-71
2021/03/22 13:44:22;;;;;;;4.00;2.85;;;;;;;;;;5069954;28;20518;-71
2021/03/22 13:46:49;;;;;;;7.00;3.35;;;;;;;;;;5069918;28;20398;-72
2021/03/22 13:49:16;;;;;;;5.93;2.70;;;;;;;;;;5069844;28;20095;-70
2021/03/22 13:51:44;;;;;;;4.95;2.72;;;;;;;;;;5071057;28;20250;-72
2021/03/22 13:54:16;;;;;;;6.65;2.70;;;14.00;40.80;;;;;;5070598;28;20451;-71
2021/03/22 13:56:44;;;;;;;7.45;2.70;;;14.00;39.80;;;;;;5068680;28;20049;-73
2021/03/22 13:59:21;;;;;;;5.32;2.95;;;14.00;40.90;;;;;;5051535;28;20086;-71